createdAt,value
2022-09-10T00:01:36.492Z,95.42
2022-09-10T00:04:07.415Z,95.31
2022-09-10T00:06:34.206Z,94.61
2022-09-10T00:09:01.179Z,93.69
2022-09-10T00:11:29.298Z,93.49
2022-09-10T00:13:56.038Z,93.05
2022-09-10T00:16:23.121Z,92.72
2022-09-10T00:18:49.812Z,90.35
2022-09-10T00:21:19.444Z,88.90
2022-09-10T00:23:46.422Z,88.77
2022-09-10T00:26:22.125Z,87.67
2022-09-10T00:28:50.602Z,89.66
2022-09-10T00:31:18.114Z,88.88
2022-09-10T00:33:45.567Z,87.18
2022-09-10T00:36:33.622Z,86.89
2022-09-10T00:39:04.605Z,84.84
2022-09-10T00:41:33.091Z,82.36
2022-09-10T00:44:27.573Z,82.74
2022-09-10T00:46:55.857Z,80.54
2022-09-10T00:49:33.712Z,80.97
2022-09-10T00:52:01.938Z,80.27
2022-09-10T00:54:33.685Z,80.79
2022-09-10T00:57:08.141Z,80.16
2022-09-10T00:59:36.054Z,80.41
2022-09-10T01:02:02.886Z,81.37
2022-09-10T01:04:29.805Z,82.50
2022-09-10T01:07:01.645Z,82.98
2022-09-10T01:09:29.535Z,83.88
2022-09-10T01:12:22.370Z,83.07
2022-09-10T01:15:02.172Z,83.96
2022-09-10T01:17:47.384Z,84.01
2022-09-10T01:20:51.589Z,83.76
2022-09-10T01:23:46.186Z,85.23
2022-09-10T01:26:18.856Z,83.90
2022-09-10T01:29:02.216Z,84.17
2022-09-10T01:31:28.804Z,83.99
2022-09-10T01:34:04.970Z,83.95
2022-09-10T01:36:38.452Z,84.57
2022-09-10T01:39:05.023Z,83.56
2022-09-10T01:41:31.583Z,83.52
2022-09-10T01:43:58.434Z,82.56
2022-09-10T01:46:45.159Z,81.25
2022-09-10T01:49:36.377Z,80.52
2022-09-10T01:52:19.621Z,80.20
2022-09-10T01:55:13.298Z,78.99
2022-09-10T01:57:49.401Z,78.46
2022-09-10T02:00:19.524Z,76.86
2022-09-10T02:02:58.979Z,76.99
2022-09-10T02:05:30.392Z,77.80
2022-09-10T02:08:03.121Z,77.71
2022-09-10T02:10:29.860Z,77.41
2022-09-10T02:12:56.823Z,78.23
2022-09-10T02:15:27.024Z,78.79
2022-09-10T02:17:54.708Z,77.42
2022-09-10T02:20:21.922Z,77.11
2022-09-10T02:22:55.417Z,77.00
2022-09-10T02:25:22.403Z,75.40
2022-09-10T02:27:49.141Z,75.22
2022-09-10T02:30:15.837Z,75.39
2022-09-10T02:32:42.451Z,75.45
2022-09-10T02:35:09.356Z,75.40
2022-09-10T02:37:36.079Z,74.50
2022-09-10T02:40:03.607Z,72.63
2022-09-10T02:42:30.354Z,73.85
2022-09-10T02:44:57.072Z,72.03
2022-09-10T02:47:23.786Z,71.25
2022-09-10T02:49:50.294Z,70.67
2022-09-10T02:52:16.895Z,71.90
2022-09-10T02:54:44.154Z,71.22
2022-09-10T02:57:10.958Z,71.90
2022-09-10T02:59:38.193Z,74.57
2022-09-10T03:02:05.144Z,80.25
2022-09-10T03:04:32.026Z,81.93
2022-09-10T03:06:58.793Z,83.84
2022-09-10T03:09:25.934Z,83.23
2022-09-10T03:11:52.735Z,82.44
2022-09-10T03:14:19.582Z,82.62
2022-09-10T03:16:49.566Z,80.25
2022-09-10T03:19:16.394Z,82.80
2022-09-10T03:21:43.151Z,82.39
2022-09-10T03:24:09.693Z,80.84
2022-09-10T03:26:36.737Z,79.46
2022-09-10T03:29:03.323Z,80.67
2022-09-10T03:31:29.909Z,81.20
2022-09-10T03:33:56.757Z,78.87
2022-09-10T03:36:23.611Z,78.16
2022-09-10T03:38:50.114Z,79.47
2022-09-10T03:41:17.421Z,83.13
2022-09-10T03:43:43.974Z,85.28
2022-09-10T03:46:10.584Z,86.40
2022-09-10T03:48:37.410Z,87.15
2022-09-10T03:51:04.210Z,87.86
2022-09-10T03:53:30.872Z,85.26
2022-09-10T03:55:57.647Z,84.77
2022-09-10T03:58:26.600Z,83.35
2022-09-10T04:00:53.271Z,84.16
2022-09-10T04:03:19.979Z,82.92
2022-09-10T04:05:47.185Z,83.14
2022-09-10T04:08:17.373Z,82.76
2022-09-10T04:10:46.616Z,83.63
2022-09-10T04:13:13.505Z,84.36
2022-09-10T04:15:40.877Z,83.48
2022-09-10T04:18:07.947Z,83.20
2022-09-10T04:20:34.842Z,83.70
2022-09-10T04:23:01.411Z,83.74
2022-09-10T04:25:28.247Z,83.64
2022-09-10T04:27:55.351Z,81.38
2022-09-10T04:30:22.995Z,83.25
2022-09-10T04:32:50.142Z,84.33
2022-09-10T04:35:17.170Z,84.29
2022-09-10T04:37:44.017Z,83.38
2022-09-10T04:40:11.072Z,85.14
2022-09-10T04:42:38.165Z,85.76
2022-09-10T04:45:06.497Z,86.96
2022-09-10T04:47:33.845Z,87.10
2022-09-10T04:50:00.698Z,87.79
2022-09-10T04:52:27.538Z,89.21
2022-09-10T04:54:54.118Z,90.82
2022-09-10T04:57:21.066Z,90.38
2022-09-10T04:59:47.843Z,92.85
2022-09-10T05:02:14.523Z,92.52
2022-09-10T05:04:44.253Z,90.22
2022-09-10T05:07:11.375Z,89.67
2022-09-10T05:09:38.863Z,91.71
2022-09-10T05:12:05.923Z,91.99
2022-09-10T05:14:32.971Z,91.21
2022-09-10T05:16:59.992Z,90.80
2022-09-10T05:19:27.266Z,90.06
2022-09-10T05:21:54.383Z,90.89
2022-09-10T05:24:21.537Z,89.84
2022-09-10T05:26:48.545Z,89.05
2022-09-10T05:29:15.625Z,87.28
2022-09-10T05:31:42.758Z,86.50
2022-09-10T05:34:09.310Z,85.62
2022-09-10T05:36:35.821Z,83.95
2022-09-10T05:39:03.065Z,82.54
2022-09-10T05:41:29.650Z,82.61
2022-09-10T05:43:56.448Z,82.92
2022-09-10T05:46:23.423Z,84.25
2022-09-10T05:48:50.823Z,82.84
2022-09-10T05:51:17.426Z,84.33
2022-09-10T05:53:43.958Z,83.18
2022-09-10T05:56:10.585Z,83.59
2022-09-10T05:58:37.275Z,83.16
2022-09-10T06:01:03.856Z,81.17
2022-09-10T06:03:30.334Z,81.53
2022-09-10T06:05:56.820Z,80.59
2022-09-10T06:08:23.476Z,79.86
2022-09-10T06:10:57.670Z,79.35
2022-09-10T06:13:24.735Z,80.25
2022-09-10T06:15:51.250Z,79.94
2022-09-10T06:18:17.883Z,79.12
2022-09-10T06:20:44.589Z,78.85
2022-09-10T06:23:11.067Z,78.90
2022-09-10T06:25:37.637Z,81.12
2022-09-10T06:28:04.151Z,81.62
2022-09-10T06:30:30.651Z,80.37
2022-09-10T06:32:57.373Z,80.15
2022-09-10T06:35:23.977Z,79.15
2022-09-10T06:37:50.527Z,79.71
2022-09-10T06:40:17.060Z,82.05
2022-09-10T06:42:43.661Z,80.56
2022-09-10T06:45:10.466Z,81.13
2022-09-10T06:48:32.442Z,81.56
2022-09-10T06:50:23.714Z,80.96
2022-09-10T06:52:50.229Z,80.21
2022-09-10T06:55:16.763Z,78.92
2022-09-10T06:57:43.298Z,79.50
2022-09-10T07:00:10.420Z,79.85
2022-09-10T07:02:36.910Z,79.05
2022-09-10T07:05:03.763Z,78.17
2022-09-10T07:07:30.279Z,76.59
2022-09-10T07:09:56.837Z,76.92
2022-09-10T07:12:23.443Z,74.71
2022-09-10T07:14:49.994Z,74.31
2022-09-10T07:17:16.615Z,73.13
2022-09-10T07:19:43.276Z,72.53
2022-09-10T07:22:09.861Z,69.36
2022-09-10T07:24:36.384Z,70.19
2022-09-10T07:27:03.019Z,68.99
2022-09-10T07:29:29.574Z,67.30
2022-09-10T07:31:56.229Z,67.65
2022-09-10T07:34:23.328Z,68.33
2022-09-10T07:36:49.904Z,65.49
2022-09-10T07:39:16.640Z,65.58
2022-09-10T07:41:43.238Z,65.13
2022-09-10T07:44:09.866Z,63.77
2022-09-10T07:46:36.455Z,64.54
2022-09-10T07:49:02.983Z,64.44
2022-09-10T07:51:30.663Z,62.66
2022-09-10T07:53:59.236Z,61.89
2022-09-10T07:56:26.349Z,61.61
2022-09-10T07:58:54.013Z,61.13
2022-09-10T08:01:21.010Z,61.18
2022-09-10T08:03:47.768Z,60.08
2022-09-10T08:06:15.937Z,60.76
2022-09-10T08:08:43.183Z,57.97
2022-09-10T08:11:18.751Z,58.88
2022-09-10T08:13:47.953Z,58.41
2022-09-10T08:16:23.166Z,58.03
2022-09-10T08:18:50.586Z,56.88
2022-09-10T08:21:19.153Z,56.69
2022-09-10T08:23:50.346Z,55.40
2022-09-10T08:26:17.029Z,55.97
2022-09-10T08:28:43.704Z,54.58
2022-09-10T08:31:14.427Z,54.92
2022-09-10T08:33:41.059Z,56.15
2022-09-10T08:36:11.107Z,56.42
2022-09-10T08:38:40.094Z,55.71
2022-09-10T08:41:21.231Z,54.64
2022-09-10T08:44:15.134Z,55.56
2022-09-10T08:46:53.166Z,55.11
2022-09-10T08:49:45.618Z,55.36
2022-09-10T08:52:52.079Z,56.65
2022-09-10T08:55:21.645Z,56.70
2022-09-10T08:58:10.727Z,55.69
2022-09-10T09:00:41.774Z,56.41
2022-09-10T09:03:22.713Z,56.34
2022-09-10T09:05:58.070Z,57.08
2022-09-10T09:08:33.719Z,57.42
2022-09-10T09:11:22.698Z,59.07
2022-09-10T09:14:07.624Z,58.72
2022-09-10T09:16:58.841Z,59.26
2022-09-10T09:19:32.633Z,57.85
2022-09-10T09:22:20.104Z,56.89
2022-09-10T09:24:56.737Z,56.98
2022-09-10T09:27:29.271Z,57.00
2022-09-10T09:30:06.353Z,57.42
2022-09-10T09:32:42.122Z,57.52
2022-09-10T09:35:28.116Z,54.61
2022-09-10T09:38:09.838Z,55.17
2022-09-10T09:41:11.603Z,56.59
2022-09-10T09:43:57.498Z,56.31
2022-09-10T09:46:24.734Z,57.02
2022-09-10T09:48:58.415Z,55.60
2022-09-10T09:51:28.637Z,56.36
2022-09-10T09:54:25.768Z,57.11
2022-09-10T09:56:51.145Z,56.24
2022-09-10T09:59:36.278Z,55.16
2022-09-10T10:02:14.443Z,54.86
2022-09-10T10:04:54.907Z,54.91
2022-09-10T10:08:01.116Z,52.79
2022-09-10T10:10:34.965Z,52.70
2022-09-10T10:13:05.407Z,52.24
2022-09-10T10:15:41.895Z,51.17
2022-09-10T10:18:30.674Z,50.87
2022-09-10T10:21:17.223Z,50.57
2022-09-10T10:23:44.480Z,50.71
2022-09-10T10:26:20.274Z,51.29
2022-09-10T10:29:07.369Z,51.11
2022-09-10T10:31:43.872Z,49.77
2022-09-10T10:34:51.930Z,49.46
2022-09-10T10:37:46.635Z,48.69
2022-09-10T10:40:29.412Z,47.86
2022-09-10T10:42:59.003Z,48.01
2022-09-10T10:45:36.063Z,47.87
2022-09-10T10:48:18.227Z,48.09
2022-09-10T10:50:53.121Z,47.05
2022-09-10T10:53:53.460Z,48.50
2022-09-10T10:56:29.751Z,47.87
2022-09-10T10:59:26.545Z,47.90
2022-09-10T11:02:01.153Z,47.32
2022-09-10T11:04:48.294Z,47.27
2022-09-10T11:07:20.631Z,44.05
2022-09-10T11:10:11.953Z,44.47
2022-09-10T11:13:12.653Z,44.47
2022-09-10T11:15:51.243Z,45.40
2022-09-10T11:18:37.865Z,46.12
2022-09-10T11:21:29.124Z,44.50
2022-09-10T11:24:16.366Z,44.29
2022-09-10T11:26:47.914Z,44.37
2022-09-10T11:29:36.029Z,44.59
2022-09-10T11:32:07.731Z,44.72
2022-09-10T11:34:45.310Z,43.29
2022-09-10T11:37:42.499Z,43.21
2022-09-10T11:40:19.992Z,43.23
2022-09-10T11:42:54.175Z,43.29
2022-09-10T11:45:41.293Z,43.97
2022-09-10T11:48:42.068Z,43.19
2022-09-10T11:51:32.971Z,42.48
2022-09-10T11:54:03.279Z,43.39
2022-09-10T11:56:35.114Z,43.25
2022-09-10T11:59:30.924Z,43.39
2022-09-10T12:02:25.389Z,44.15
2022-09-10T12:05:42.873Z,44.42
2022-09-10T12:08:47.554Z,44.25
2022-09-10T12:11:48.224Z,44.28
2022-09-10T12:14:19.946Z,45.36
2022-09-10T12:16:54.860Z,45.13
2022-09-10T12:19:30.181Z,45.19
2022-09-10T12:22:06.361Z,44.78
2022-09-10T12:24:39.013Z,45.04
2022-09-10T12:27:07.461Z,44.21
2022-09-10T12:29:40.967Z,44.18
2022-09-10T12:32:19.257Z,43.72
2022-09-10T12:34:47.824Z,43.48
2022-09-10T12:37:21.143Z,43.73
2022-09-10T12:39:48.401Z,43.60
2022-09-10T12:42:29.630Z,43.92
2022-09-10T12:44:56.408Z,43.34
2022-09-10T12:47:43.174Z,43.62
2022-09-10T12:50:32.183Z,43.74
2022-09-10T12:53:11.477Z,42.17
2022-09-10T12:56:04.997Z,41.54
2022-09-10T12:58:58.256Z,41.08
2022-09-10T13:01:44.802Z,41.96
2022-09-10T13:04:23.649Z,41.73
2022-09-10T13:06:54.650Z,40.39
2022-09-10T13:09:26.447Z,41.50
2022-09-10T13:11:58.517Z,41.46
2022-09-10T13:14:33.590Z,40.98
2022-09-10T13:17:00.266Z,39.70
2022-09-10T13:19:26.748Z,40.20
2022-09-10T13:21:55.385Z,40.11
2022-09-10T13:24:34.225Z,41.03
2022-09-10T13:27:12.926Z,40.24
2022-09-10T13:29:55.706Z,40.54
2022-09-10T13:32:33.014Z,41.00
2022-09-10T13:35:32.090Z,39.19
2022-09-10T13:38:49.611Z,39.46
2022-09-10T13:41:35.105Z,37.71
2022-09-10T13:44:28.394Z,38.07
2022-09-10T13:46:58.602Z,39.02
2022-09-10T13:49:54.023Z,38.83
2022-09-10T13:52:37.387Z,38.01
2022-09-10T13:55:07.229Z,37.68
2022-09-10T13:57:39.846Z,37.53
2022-09-10T14:00:12.540Z,39.00
2022-09-10T14:02:53.843Z,39.40
2022-09-10T14:05:39.675Z,40.71
2022-09-10T14:08:12.304Z,40.81
2022-09-10T14:10:52.492Z,40.51
2022-09-10T14:13:30.061Z,40.97
2022-09-10T14:15:59.978Z,41.02
2022-09-10T14:18:37.711Z,40.12
2022-09-10T14:21:05.257Z,40.03
2022-09-10T14:23:32.379Z,39.31
2022-09-10T14:26:31.515Z,39.22
2022-09-10T14:29:24.323Z,38.99
2022-09-10T14:31:50.960Z,40.23
2022-09-10T14:34:35.512Z,39.98
2022-09-10T14:37:33.461Z,39.40
2022-09-10T14:40:18.939Z,38.70
2022-09-10T14:42:47.841Z,38.53
2022-09-10T14:45:40.117Z,39.21
2022-09-10T14:48:28.196Z,39.33
2022-09-10T14:51:09.464Z,39.22
2022-09-10T14:53:35.981Z,39.39
2022-09-10T14:56:04.684Z,39.86
2022-09-10T14:58:31.169Z,40.07
2022-09-10T15:00:58.075Z,39.31
2022-09-10T15:03:27.252Z,38.79
2022-09-10T15:05:53.788Z,38.42
2022-09-10T15:08:20.361Z,38.69
2022-09-10T15:10:49.528Z,38.00
2022-09-10T15:13:17.262Z,37.87
2022-09-10T15:15:43.837Z,37.59
2022-09-10T15:18:13.201Z,37.65
2022-09-10T15:20:39.865Z,38.40
2022-09-10T15:23:06.319Z,38.79
2022-09-10T15:25:49.518Z,38.87
2022-09-10T15:28:16.099Z,38.18
2022-09-10T15:30:42.675Z,38.38
2022-09-10T15:33:13.104Z,38.01
2022-09-10T15:35:39.564Z,37.19
2022-09-10T15:38:06.026Z,37.89
2022-09-10T15:40:32.476Z,38.22
2022-09-10T15:42:58.947Z,38.43
2022-09-10T15:45:25.464Z,38.14
2022-09-10T15:47:51.915Z,37.72
2022-09-10T15:50:18.394Z,37.67
2022-09-10T15:52:44.933Z,37.36
2022-09-10T15:55:11.976Z,37.11
2022-09-10T15:57:38.520Z,37.19
2022-09-10T16:00:06.229Z,37.70
2022-09-10T16:02:34.006Z,37.61
2022-09-10T16:05:00.550Z,37.70
2022-09-10T16:07:27.218Z,37.84
2022-09-10T16:09:53.928Z,37.88
2022-09-10T16:12:20.459Z,39.47
2022-09-10T16:14:47.039Z,40.33
2022-09-10T16:17:13.807Z,39.74
2022-09-10T16:19:40.277Z,38.55
2022-09-10T16:22:06.735Z,39.42
2022-09-10T16:24:33.301Z,39.78
2022-09-10T16:27:00.017Z,40.89
2022-09-10T16:29:26.894Z,40.34
2022-09-10T16:31:53.376Z,40.70
2022-09-10T16:34:20.788Z,40.40
2022-09-10T16:36:48.742Z,40.91
2022-09-10T16:39:16.071Z,41.22
2022-09-10T16:41:45.316Z,41.15
2022-09-10T16:44:13.939Z,41.65
2022-09-10T16:46:41.231Z,42.20
2022-09-10T16:49:10.453Z,41.14
2022-09-10T16:51:36.929Z,42.04
2022-09-10T16:54:06.573Z,41.16
2022-09-10T16:56:42.634Z,41.58
2022-09-10T16:59:15.711Z,41.58
2022-09-10T17:01:44.001Z,41.67
2022-09-10T17:04:19.765Z,42.13
2022-09-10T17:06:47.990Z,41.65
2022-09-10T17:09:15.190Z,41.67
2022-09-10T17:11:41.676Z,41.35
2022-09-10T17:14:08.117Z,41.17
2022-09-10T17:16:37.233Z,41.07
2022-09-10T17:19:10.039Z,40.66
2022-09-10T17:21:39.086Z,41.61
2022-09-10T17:24:08.483Z,42.09
2022-09-10T17:26:36.176Z,42.62
2022-09-10T17:29:06.029Z,42.68
2022-09-10T17:31:34.024Z,42.49
2022-09-10T17:34:01.382Z,43.56
2022-09-10T17:36:28.242Z,42.84
2022-09-10T17:38:55.240Z,42.85
2022-09-10T17:41:23.782Z,42.14
2022-09-10T17:43:50.293Z,43.02
2022-09-10T17:46:18.505Z,42.83
2022-09-10T17:48:45.538Z,42.87
2022-09-10T17:51:15.218Z,43.11
2022-09-10T17:53:42.225Z,42.80
2022-09-10T17:56:15.141Z,43.33
2022-09-10T17:58:41.855Z,43.29
2022-09-10T18:01:13.751Z,44.42
2022-09-10T18:03:41.207Z,44.99
2022-09-10T18:06:10.327Z,43.38
2022-09-10T18:11:11.586Z,42.86
2022-09-10T18:13:38.095Z,42.59
2022-09-10T18:16:05.995Z,43.14
2022-09-10T18:18:33.311Z,42.71
2022-09-10T18:21:16.953Z,42.76
2022-09-10T18:23:43.513Z,42.80
2022-09-10T18:26:16.054Z,43.38
2022-09-10T18:28:51.133Z,43.88
2022-09-10T18:31:17.627Z,43.92
2022-09-10T18:33:44.148Z,44.14
2022-09-10T18:36:17.149Z,43.48
2022-09-10T18:38:44.709Z,42.89
2022-09-10T18:41:16.831Z,43.35
2022-09-10T18:43:43.435Z,42.93
2022-09-10T18:46:09.943Z,42.77
2022-09-10T18:48:36.500Z,42.12
2022-09-10T18:51:11.132Z,42.86
2022-09-10T18:53:39.105Z,43.39
2022-09-10T18:56:11.505Z,42.65
2022-09-10T18:58:38.769Z,42.68
2022-09-10T19:01:12.540Z,43.33
2022-09-10T19:03:42.279Z,44.54
2022-09-10T19:06:12.985Z,43.95
2022-09-10T19:08:45.374Z,44.43
2022-09-10T19:11:11.821Z,45.48
2022-09-10T19:13:38.344Z,45.29
2022-09-10T19:16:05.219Z,44.86
2022-09-10T19:18:31.866Z,45.37
2022-09-10T19:21:03.081Z,46.47
2022-09-10T19:23:29.684Z,45.89
2022-09-10T19:25:56.796Z,45.37
2022-09-10T19:28:24.207Z,45.62
2022-09-10T19:30:51.281Z,45.85
2022-09-10T19:33:17.960Z,46.23
2022-09-10T19:35:45.658Z,46.57
2022-09-10T19:38:34.221Z,46.22
2022-09-10T19:41:11.417Z,45.19
2022-09-10T19:43:40.163Z,46.01
2022-09-10T19:46:09.347Z,45.65
2022-09-10T19:48:36.957Z,46.41
2022-09-10T19:51:04.751Z,45.49
2022-09-10T19:53:34.314Z,46.47
2022-09-10T19:56:09.960Z,46.42
2022-09-10T19:58:37.911Z,45.62
2022-09-10T20:01:13.148Z,46.06
2022-09-10T20:03:42.163Z,45.44
2022-09-10T20:06:08.885Z,45.30
2022-09-10T20:08:35.399Z,45.73
2022-09-10T20:11:06.733Z,45.00
2022-09-10T20:13:34.540Z,45.27
2022-09-10T20:16:06.542Z,45.85
2022-09-10T20:18:35.682Z,45.91
2022-09-10T20:21:18.244Z,46.52
2022-09-10T20:23:47.630Z,48.77
2022-09-10T20:26:18.019Z,49.10
2022-09-10T20:28:45.138Z,48.69
2022-09-10T20:31:13.012Z,49.40
2022-09-10T20:33:42.438Z,51.09
2022-09-10T20:36:13.573Z,52.55
2022-09-10T20:38:40.450Z,52.97
2022-09-10T20:41:07.752Z,54.99
2022-09-10T20:43:34.445Z,52.95
2022-09-10T20:46:01.584Z,53.13
2022-09-10T20:48:28.120Z,51.78
2022-09-10T20:50:59.715Z,51.06
2022-09-10T20:53:27.194Z,50.18
2022-09-10T20:56:02.359Z,50.01
2022-09-10T20:58:28.846Z,49.77
2022-09-10T21:00:55.287Z,51.41
2022-09-10T21:03:21.725Z,51.56
2022-09-10T21:05:49.093Z,51.40
2022-09-10T21:08:15.549Z,51.41
2022-09-10T21:10:42.134Z,51.77
2022-09-10T21:13:08.650Z,51.22
2022-09-10T21:15:35.248Z,49.63
2022-09-10T21:18:01.713Z,50.25
2022-09-10T21:20:28.159Z,50.60
2022-09-10T21:22:54.609Z,50.63
2022-09-10T21:25:21.047Z,49.89
2022-09-10T21:27:47.494Z,49.63
2022-09-10T21:30:13.992Z,49.78
2022-09-10T21:32:40.468Z,49.01
2022-09-10T21:35:07.187Z,48.96
2022-09-10T21:37:33.646Z,48.92
2022-09-10T21:40:00.275Z,49.13
2022-09-10T21:42:26.935Z,48.90
2022-09-10T21:44:53.389Z,48.68
2022-09-10T21:47:19.848Z,48.37
2022-09-10T21:49:46.299Z,48.15
2022-09-10T21:52:12.836Z,48.31
2022-09-10T21:54:39.268Z,49.44
2022-09-10T21:57:05.940Z,50.68
2022-09-10T21:59:32.383Z,52.21
2022-09-10T22:01:58.900Z,53.18
2022-09-10T22:04:25.485Z,54.50
2022-09-10T22:06:52.709Z,54.11
2022-09-10T22:09:19.164Z,54.80
2022-09-10T22:11:47.981Z,55.45
2022-09-10T22:14:17.060Z,57.04
2022-09-10T22:16:44.674Z,57.02
2022-09-10T22:19:17.598Z,58.37
2022-09-10T22:21:44.628Z,59.09
2022-09-10T22:24:13.461Z,59.50
2022-09-10T22:26:42.911Z,59.29
2022-09-10T22:29:09.706Z,59.11
2022-09-10T22:31:37.037Z,59.86
2022-09-10T22:34:10.774Z,59.48
2022-09-10T22:36:39.753Z,60.26
2022-09-10T22:39:10.360Z,60.09
2022-09-10T22:41:36.920Z,59.36
2022-09-10T22:44:04.585Z,60.02
2022-09-10T22:46:32.147Z,58.64
2022-09-10T22:48:59.449Z,56.60
2022-09-10T22:51:33.195Z,56.65
2022-09-10T22:54:00.030Z,56.70
2022-09-10T22:56:27.670Z,57.20
2022-09-10T22:58:56.901Z,57.99
2022-09-10T23:01:27.696Z,57.69
2022-09-10T23:03:59.824Z,58.40
2022-09-10T23:06:28.588Z,58.83
2022-09-10T23:09:01.500Z,56.77
2022-09-10T23:11:30.180Z,59.15
2022-09-10T23:13:58.986Z,57.08
2022-09-10T23:16:32.273Z,56.18
2022-09-10T23:19:01.464Z,55.88
2022-09-10T23:21:30.001Z,55.25
2022-09-10T23:23:59.379Z,55.73
2022-09-10T23:26:26.899Z,58.22
2022-09-10T23:28:53.822Z,58.35
2022-09-10T23:31:26.617Z,58.70
2022-09-10T23:33:56.483Z,59.54
2022-09-10T23:36:23.005Z,59.06
2022-09-10T23:38:49.700Z,59.38
2022-09-10T23:41:17.162Z,59.24
2022-09-10T23:43:44.844Z,57.67
2022-09-10T23:46:12.814Z,57.59
2022-09-10T23:48:39.972Z,57.32
2022-09-10T23:51:06.608Z,59.00
2022-09-10T23:53:33.264Z,60.59
2022-09-10T23:55:59.982Z,62.12
2022-09-10T23:58:26.545Z,61.66
